Aviation Digital Data Service (ADDS)

Output produced by METARs form (0640 UTC 21 January 2019)
found at http://www.aviationweather.gov/metar/data/
 
Forecast for: ZYTX (SHENYANG/TAOKIAN, CN)
Text: TAF ZYTX 210244Z 2106/2206 30005MPS CAVOK TX03/2106Z TNM10/21Z
Forecast period: 0600 to 1000 UTC 21 January 2019
Forecast type: FROM: standard forecast or significant change
Winds: from the WNW (300 degrees) at 12 MPH (10 knots; 5.1 m/s)
Visibility: 6 or more miles 10+ km)
Ceiling: unknown
Clouds: missing
Weather: no significant weather forecast for this period
Text: BECMG 2110/2111 20004MPS
Forecast period: 1000 UTC 21 January 2019 to 0600 UTC 22 January 2019
Forecast type: BECOMING: Conditions expected to become as follows by 1100 UTC 21 January 2019
Winds: from the SSW (200 degrees) at 9 MPH (8 knots; 4.1 m/s)
Visibility: 6 or more miles 10+ km)
Ceiling: unknown
Clouds: missing
Weather: no significant weather forecast for this period